createdAt,value
2018-05-21T00:01:54.013Z,99275.83
2018-05-21T00:04:21.581Z,99278.17
2018-05-21T00:06:49.113Z,99280.34
2018-05-21T00:09:16.737Z,99282.97
2018-05-21T00:11:44.290Z,99292.27
2018-05-21T00:14:11.839Z,99293.30
2018-05-21T00:16:39.398Z,99289.33
2018-05-21T00:19:06.997Z,99299.43
2018-05-21T00:21:34.546Z,99295.80
2018-05-21T00:24:02.101Z,99295.84
2018-05-21T00:26:29.662Z,99297.25
2018-05-21T00:28:57.906Z,99298.92
2018-05-21T00:31:25.511Z,99293.38
2018-05-21T00:33:53.061Z,99283.80
2018-05-21T00:36:20.713Z,99290.88
2018-05-21T00:38:48.272Z,99293.41
2018-05-21T00:41:15.867Z,99286.83
2018-05-21T00:43:43.417Z,99281.10
2018-05-21T00:46:10.969Z,99273.86
2018-05-21T00:48:38.534Z,99266.74
2018-05-21T00:51:06.179Z,99263.34
2018-05-21T00:53:33.727Z,99258.48
2018-05-21T00:56:01.282Z,99260.18
2018-05-21T00:58:28.848Z,99248.58
2018-05-21T01:00:56.433Z,99247.67
2018-05-21T01:03:23.986Z,99248.46
2018-05-21T01:05:51.568Z,99244.50
2018-05-21T01:08:19.156Z,99241.56
2018-05-21T01:10:46.748Z,99242.73
2018-05-21T01:13:14.293Z,99240.41
2018-05-21T01:15:41.959Z,99241.64
2018-05-21T01:18:09.425Z,99242.95
2018-05-21T01:20:36.978Z,99241.30
2018-05-21T01:23:04.499Z,99241.03
2018-05-21T01:25:32.156Z,99241.00
2018-05-21T01:27:59.789Z,99239.75
2018-05-21T01:30:28.085Z,99237.61
2018-05-21T01:32:55.715Z,99231.95
2018-05-21T01:35:23.290Z,99233.88
2018-05-21T01:37:50.822Z,99235.61
2018-05-21T01:40:18.461Z,99232.22
2018-05-21T01:42:45.921Z,99237.45
2018-05-21T01:45:13.502Z,99236.29
2018-05-21T01:47:41.124Z,99230.11
2018-05-21T01:50:08.631Z,99233.31
2018-05-21T01:52:36.185Z,99229.92
2018-05-21T01:55:03.733Z,99228.08
2018-05-21T01:57:31.300Z,99224.00
2018-05-21T01:59:58.859Z,99225.63
2018-05-21T02:02:26.416Z,99225.78
2018-05-21T02:04:53.945Z,99207.77
2018-05-21T02:07:21.490Z,99220.25
2018-05-21T02:09:49.014Z,99214.78
2018-05-21T02:12:16.656Z,99211.84
2018-05-21T02:14:44.214Z,99209.53
2018-05-21T02:17:11.778Z,99213.20
2018-05-21T02:19:39.293Z,99212.56
2018-05-21T02:22:06.857Z,99213.56
2018-05-21T02:24:34.386Z,99211.23
2018-05-21T02:27:02.031Z,99218.77
2018-05-21T02:29:29.512Z,99215.07
2018-05-21T02:31:57.069Z,99215.94
2018-05-21T02:34:24.596Z,99218.15
2018-05-21T02:36:52.153Z,99215.20
2018-05-21T02:39:19.764Z,99221.71
2018-05-21T02:41:47.301Z,99215.83
2018-05-21T02:44:14.884Z,99208.86
2018-05-21T02:46:42.431Z,99210.01
2018-05-21T02:49:10.045Z,99214.31
2018-05-21T02:51:37.582Z,99207.83
2018-05-21T02:54:05.281Z,99209.15
2018-05-21T02:56:32.836Z,99207.28
2018-05-21T02:59:00.390Z,99203.85
2018-05-21T03:01:28.765Z,99201.63
2018-05-21T03:03:56.323Z,99200.60
2018-05-21T03:06:23.995Z,99202.13
2018-05-21T03:08:51.527Z,99199.45
2018-05-21T03:11:19.104Z,99191.05
2018-05-21T03:13:46.625Z,99193.77
2018-05-21T03:16:14.182Z,99195.77
2018-05-21T03:18:41.706Z,99195.45
2018-05-21T03:21:09.227Z,99186.83
2018-05-21T03:23:36.786Z,99184.41
2018-05-21T03:26:04.307Z,99183.50
2018-05-21T03:28:31.918Z,99190.17
2018-05-21T03:30:59.477Z,99189.62
2018-05-21T03:33:27.141Z,99190.07
2018-05-21T03:35:54.677Z,99192.55
2018-05-21T03:38:22.249Z,99195.22
2018-05-21T03:40:49.828Z,99183.23
2018-05-21T03:43:17.402Z,99180.76
2018-05-21T03:45:44.937Z,99184.27
2018-05-21T03:48:12.498Z,99185.91
2018-05-21T03:50:40.055Z,99183.08
2018-05-21T03:53:07.719Z,99187.23
2018-05-21T03:55:35.259Z,99187.48
2018-05-21T03:58:02.819Z,99190.08
2018-05-21T04:00:42.167Z,99187.69
2018-05-21T04:03:21.423Z,99189.53
2018-05-21T04:05:48.948Z,99187.35
2018-05-21T04:08:16.502Z,99184.47
2018-05-21T04:10:44.084Z,99185.58
2018-05-21T04:13:12.501Z,99192.16
2018-05-21T04:15:40.033Z,99191.33
2018-05-21T04:18:07.610Z,99190.30
2018-05-21T04:20:35.132Z,99185.72
2018-05-21T04:23:02.689Z,99176.23
2018-05-21T04:25:30.281Z,99183.50
2018-05-21T04:27:57.820Z,99183.09
2018-05-21T04:30:25.345Z,99180.38
2018-05-21T04:32:52.899Z,99187.67
2018-05-21T04:35:20.426Z,99180.45
2018-05-21T04:37:48.059Z,99181.02
2018-05-21T04:40:15.626Z,99186.25
2018-05-21T04:42:43.182Z,99184.38
2018-05-21T04:45:10.716Z,99185.03
2018-05-21T04:47:38.265Z,99187.00
2018-05-21T04:50:05.778Z,99193.36
2018-05-21T04:52:33.414Z,99192.47
2018-05-21T04:55:00.945Z,99195.63
2018-05-21T04:57:28.518Z,99190.81
2018-05-21T04:59:56.073Z,99197.83
2018-05-21T05:02:23.591Z,99194.68
2018-05-21T05:04:51.178Z,99194.44
2018-05-21T05:07:18.704Z,99187.27
2018-05-21T05:09:46.312Z,99196.41
2018-05-21T05:12:13.903Z,99191.83
2018-05-21T05:14:41.460Z,99188.56
2018-05-21T05:17:09.060Z,99184.14
2018-05-21T05:19:36.669Z,99187.25
2018-05-21T05:22:04.217Z,99184.42
2018-05-21T05:24:31.769Z,99185.78
2018-05-21T05:26:59.421Z,99184.11
2018-05-21T05:29:27.015Z,99185.38
2018-05-21T05:31:54.678Z,99184.34
2018-05-21T05:34:22.233Z,99189.20
2018-05-21T05:36:49.793Z,99192.59
2018-05-21T05:39:17.331Z,99180.16
2018-05-21T05:41:44.910Z,99182.15
2018-05-21T05:44:12.583Z,99186.81
2018-05-21T05:46:40.114Z,99178.41
2018-05-21T05:49:07.699Z,99185.03
2018-05-21T05:51:35.248Z,99182.70
2018-05-21T05:54:02.795Z,99181.38
2018-05-21T05:56:30.572Z,99185.33
2018-05-21T05:58:58.125Z,99185.33
2018-05-21T06:01:25.738Z,99181.49
2018-05-21T06:03:53.254Z,99182.94
2018-05-21T06:06:20.807Z,99176.33
2018-05-21T06:08:48.358Z,99180.41
2018-05-21T06:11:15.890Z,99176.20
2018-05-21T06:13:43.493Z,99175.98
2018-05-21T06:16:11.015Z,99176.88
2018-05-21T06:18:38.565Z,99167.63
2018-05-21T06:21:06.171Z,99171.28
2018-05-21T06:23:33.830Z,99173.11
2018-05-21T06:26:01.449Z,99178.20
2018-05-21T06:28:28.923Z,99171.95
2018-05-21T06:30:56.475Z,99175.22
2018-05-21T06:33:24.031Z,99172.38
2018-05-21T06:35:51.634Z,99174.73
2018-05-21T06:38:19.183Z,99170.27
2018-05-21T06:40:46.909Z,99169.02
2018-05-21T06:43:14.506Z,99165.66
2018-05-21T06:45:43.826Z,99168.78
2018-05-21T06:48:11.940Z,99171.38
2018-05-21T06:50:43.242Z,99176.48
2018-05-21T06:53:11.409Z,99172.42
2018-05-21T06:55:41.200Z,99172.19
2018-05-21T06:58:08.729Z,99164.85
2018-05-21T07:00:38.118Z,99174.77
2018-05-21T07:03:05.659Z,99172.55
2018-05-21T07:05:35.281Z,99166.88
2018-05-21T07:08:03.787Z,99177.86
2018-05-21T07:10:32.865Z,99178.92
2018-05-21T07:13:03.943Z,99181.86
2018-05-21T07:15:34.876Z,99175.12
2018-05-21T07:18:05.556Z,99176.95
2018-05-21T07:20:36.557Z,99176.70
2018-05-21T07:23:06.282Z,99180.48
2018-05-21T07:25:34.518Z,99170.80
2018-05-21T07:28:04.960Z,99172.59
2018-05-21T07:30:33.477Z,99177.75
2018-05-21T07:33:02.766Z,99175.08
2018-05-21T07:35:32.838Z,99175.16
2018-05-21T07:38:04.140Z,99181.30
2018-05-21T07:40:32.594Z,99175.30
2018-05-21T07:43:01.189Z,99174.66
2018-05-21T07:45:30.473Z,99171.92
2018-05-21T07:48:01.146Z,99169.61
2018-05-21T07:50:34.383Z,99159.75
2018-05-21T07:53:07.619Z,99155.73
2018-05-21T07:55:36.888Z,99165.28
2018-05-21T07:58:05.285Z,99161.35
2018-05-21T08:00:34.555Z,99160.70
2018-05-21T08:03:04.178Z,99164.07
2018-05-21T08:05:31.937Z,99162.17
2018-05-21T08:07:59.465Z,99165.30
2018-05-21T08:10:27.365Z,99166.55
2018-05-21T08:12:56.321Z,99164.90
2018-05-21T08:15:24.097Z,99168.52
2018-05-21T08:17:51.691Z,99163.53
2018-05-21T08:20:19.479Z,99160.47
2018-05-21T08:22:49.955Z,99170.95
2018-05-21T08:25:17.661Z,99165.50
2018-05-21T08:27:45.184Z,99160.53
2018-05-21T08:30:12.887Z,99163.08
2018-05-21T08:32:40.444Z,99152.98
2018-05-21T08:35:08.001Z,99156.77
2018-05-21T08:37:36.142Z,99157.61
2018-05-21T08:40:03.745Z,99154.66
2018-05-21T08:42:32.112Z,99151.69
2018-05-21T08:45:00.534Z,99147.83
2018-05-21T08:47:32.756Z,99154.22
2018-05-21T08:50:03.949Z,99155.36
2018-05-21T08:52:33.523Z,99155.34
2018-05-21T08:55:03.578Z,99151.82
2018-05-21T08:57:33.628Z,99154.22
2018-05-21T09:00:03.844Z,99157.77
2018-05-21T09:02:34.074Z,99153.43
2018-05-21T09:05:04.249Z,99144.54
2018-05-21T09:07:38.768Z,99150.60
2018-05-21T09:10:08.788Z,99147.13
2018-05-21T09:12:38.566Z,99154.55
2018-05-21T09:15:10.951Z,99136.41
2018-05-21T09:17:40.578Z,99137.73
2018-05-21T09:20:08.307Z,99130.30
2018-05-21T09:22:39.795Z,99131.66
2018-05-21T09:25:08.162Z,99132.48
2018-05-21T09:27:36.805Z,99125.43
2018-05-21T09:30:06.916Z,99129.78
2018-05-21T09:32:34.692Z,99130.57
2018-05-21T09:35:02.265Z,99131.42
2018-05-21T09:37:29.814Z,99125.47
2018-05-21T09:39:57.349Z,99131.92
2018-05-21T09:42:24.927Z,99132.44
2018-05-21T09:44:52.505Z,99132.55
2018-05-21T09:47:20.054Z,99132.31
2018-05-21T09:49:47.573Z,99121.98
2018-05-21T09:52:15.133Z,99126.03
2018-05-21T09:54:42.727Z,99124.86
2018-05-21T09:57:10.283Z,99124.45
2018-05-21T09:59:37.816Z,99125.22
2018-05-21T10:02:05.374Z,99120.53
2018-05-21T10:04:32.977Z,99117.78
2018-05-21T10:07:00.552Z,99129.63
2018-05-21T10:09:28.393Z,99121.86
2018-05-21T10:11:55.953Z,99127.28
2018-05-21T10:14:23.482Z,99117.37
2018-05-21T10:16:51.034Z,99116.20
2018-05-21T10:19:18.599Z,99117.55
2018-05-21T10:21:46.152Z,99116.13
2018-05-21T10:24:13.764Z,99120.20
2018-05-21T10:26:41.320Z,99117.37
2018-05-21T10:29:09.738Z,99126.88
2018-05-21T10:31:37.389Z,99113.69
2018-05-21T10:34:05.024Z,99113.41
2018-05-21T10:36:32.601Z,99120.33
2018-05-21T10:39:00.153Z,99110.77
2018-05-21T10:41:27.855Z,99114.06
2018-05-21T10:43:55.513Z,99109.23
2018-05-21T10:46:23.126Z,99103.59
2018-05-21T10:48:52.228Z,99107.09
2018-05-21T10:51:19.903Z,99100.53
2018-05-21T10:53:47.865Z,99097.03
2018-05-21T10:56:15.503Z,99095.44
2018-05-21T10:58:43.021Z,99096.44
2018-05-21T11:01:10.622Z,99091.27
2018-05-21T11:03:39.074Z,99095.39
2018-05-21T11:06:06.605Z,99083.92
2018-05-21T11:08:35.280Z,99085.12
2018-05-21T11:11:02.881Z,99086.27
2018-05-21T11:13:31.911Z,99091.16
2018-05-21T11:15:59.585Z,99084.16
2018-05-21T11:18:27.134Z,99083.19
2018-05-21T11:20:55.192Z,99075.73
2018-05-21T11:23:23.072Z,99077.31
2018-05-21T11:25:50.631Z,99081.02
2018-05-21T11:28:18.196Z,99077.59
2018-05-21T11:30:46.571Z,99073.42
2018-05-21T11:33:14.150Z,99072.70
2018-05-21T11:35:41.678Z,99054.47
2018-05-21T11:38:09.232Z,99052.62
2018-05-21T11:40:36.757Z,99048.91
2018-05-21T11:43:04.653Z,99049.42
2018-05-21T11:45:32.163Z,99045.69
2018-05-21T11:47:59.739Z,99050.38
2018-05-21T11:50:27.265Z,99048.83
2018-05-21T11:52:54.818Z,99049.27
2018-05-21T11:55:22.353Z,99047.16
2018-05-21T11:57:49.935Z,99041.19
2018-05-21T12:00:18.727Z,99034.83
2018-05-21T12:02:46.443Z,99043.59
2018-05-21T12:05:13.942Z,99034.61
2018-05-21T12:07:46.854Z,99030.73
2018-05-21T12:10:14.333Z,99030.47
2018-05-21T12:12:42.510Z,99037.14
2018-05-21T12:15:10.741Z,99019.67
2018-05-21T12:17:38.320Z,99031.47
2018-05-21T12:20:05.841Z,99031.73
2018-05-21T12:22:33.398Z,99032.93
2018-05-21T12:25:00.946Z,99027.52
2018-05-21T12:27:29.168Z,99025.97
2018-05-21T12:29:56.778Z,99025.52
2018-05-21T12:32:24.330Z,99026.67
2018-05-21T12:34:51.856Z,99019.69
2018-05-21T12:37:20.064Z,99012.53
2018-05-21T12:39:47.635Z,99022.58
2018-05-21T12:42:15.415Z,99022.54
2018-05-21T12:44:43.014Z,99027.60
2018-05-21T12:47:10.640Z,99027.56
2018-05-21T12:49:38.298Z,99025.55
2018-05-21T12:52:05.821Z,99020.03
2018-05-21T12:54:34.522Z,99026.27
2018-05-21T12:57:02.145Z,99022.02
2018-05-21T12:59:29.773Z,99024.66
2018-05-21T13:01:57.304Z,99013.78
2018-05-21T13:04:24.859Z,99014.56
2018-05-21T13:06:52.386Z,99009.77
2018-05-21T13:09:19.942Z,99010.32
2018-05-21T13:11:47.566Z,99011.80
2018-05-21T13:14:15.118Z,99009.41
2018-05-21T13:16:42.643Z,99012.10
2018-05-21T13:19:10.195Z,98998.86
2018-05-21T13:21:37.799Z,99000.30
2018-05-21T13:24:05.489Z,99002.54
2018-05-21T13:26:33.029Z,98996.20
2018-05-21T13:29:00.579Z,98997.98
2018-05-21T13:31:28.105Z,98991.50
2018-05-21T13:34:00.002Z,98990.34
2018-05-21T13:36:27.686Z,98978.45
2018-05-21T13:38:56.277Z,98984.44
2018-05-21T13:41:23.793Z,98979.52
2018-05-21T13:43:57.353Z,98976.75
2018-05-21T13:46:25.745Z,98971.82
2018-05-21T13:49:07.543Z,98966.36
2018-05-21T13:51:35.273Z,98966.64
2018-05-21T13:54:02.828Z,98971.61
2018-05-21T13:56:37.049Z,98971.49
2018-05-21T13:59:04.759Z,98962.22
2018-05-21T14:01:32.335Z,98971.70
2018-05-21T14:04:00.001Z,98967.80
2018-05-21T14:06:27.538Z,98959.23
2018-05-21T14:08:55.116Z,98959.30
2018-05-21T14:11:22.687Z,98965.50
2018-05-21T14:13:50.213Z,98962.91
2018-05-21T14:16:17.817Z,98965.95
2018-05-21T14:18:45.348Z,98959.95
2018-05-21T14:21:12.951Z,98959.34
2018-05-21T14:23:40.504Z,98963.73
2018-05-21T14:26:08.056Z,98960.81
2018-05-21T14:28:35.583Z,98965.72
2018-05-21T14:31:03.161Z,98966.72
2018-05-21T14:33:30.691Z,98960.72
2018-05-21T14:35:58.293Z,98961.57
2018-05-21T14:38:25.819Z,98960.98
2018-05-21T14:40:53.394Z,98959.03
2018-05-21T14:43:20.947Z,98952.66
2018-05-21T14:45:48.503Z,98950.30
2018-05-21T14:48:16.102Z,98950.03
2018-05-21T14:50:43.598Z,98945.00
2018-05-21T14:53:11.535Z,98943.56
2018-05-21T14:55:39.504Z,98944.80
2018-05-21T14:58:09.762Z,98938.56
2018-05-21T15:00:37.581Z,98931.52
2018-05-21T15:03:05.216Z,98935.81
2018-05-21T15:05:32.822Z,98934.31
2018-05-21T15:08:00.343Z,98935.78
2018-05-21T15:10:30.091Z,98934.01
2018-05-21T15:13:00.497Z,98939.63
2018-05-21T15:15:28.202Z,98928.55
2018-05-21T15:17:55.802Z,98924.63
2018-05-21T15:20:24.066Z,98927.63
2018-05-21T15:22:51.702Z,98926.48
2018-05-21T15:25:19.287Z,98926.47
2018-05-21T15:27:47.436Z,98921.29
2018-05-21T15:30:15.114Z,98922.42
2018-05-21T15:32:43.214Z,98919.02
2018-05-21T15:35:10.869Z,98923.32
2018-05-21T15:37:38.425Z,98922.28
2018-05-21T15:40:05.938Z,98916.71
2018-05-21T15:42:33.530Z,98912.05
2018-05-21T15:45:01.076Z,98914.52
2018-05-21T15:47:28.628Z,98909.84
2018-05-21T15:49:56.157Z,98905.39
2018-05-21T15:52:23.709Z,98904.91
2018-05-21T15:54:51.336Z,98901.29
2018-05-21T15:57:18.891Z,98908.77
2018-05-21T15:59:47.290Z,98910.55
2018-05-21T16:02:14.872Z,98906.95
2018-05-21T16:04:43.358Z,98900.21
2018-05-21T16:07:10.921Z,98899.91
2018-05-21T16:09:38.530Z,98912.37
2018-05-21T16:12:06.077Z,98910.69
2018-05-21T16:14:33.654Z,98903.18
2018-05-21T16:17:01.202Z,98900.31
2018-05-21T16:19:28.766Z,98898.82
2018-05-21T16:21:56.672Z,98897.94
2018-05-21T16:24:24.409Z,98896.50
2018-05-21T16:26:52.164Z,98888.70
2018-05-21T16:29:19.810Z,98884.64
2018-05-21T16:31:47.486Z,98888.80
2018-05-21T16:34:15.247Z,98887.09
2018-05-21T16:36:43.499Z,98882.03
2018-05-21T16:39:11.086Z,98874.11
2018-05-21T16:41:38.655Z,98866.78
2018-05-21T16:44:06.178Z,98873.42
2018-05-21T16:46:33.779Z,98871.64
2018-05-21T16:49:01.337Z,98878.40
2018-05-21T16:51:28.987Z,98883.77
2018-05-21T16:53:56.743Z,98886.06
2018-05-21T16:56:24.239Z,98883.92
2018-05-21T16:58:51.766Z,98895.34
2018-05-21T17:01:19.353Z,98898.92
2018-05-21T17:03:46.996Z,98898.02
2018-05-21T17:06:14.551Z,98912.02
2018-05-21T17:08:43.229Z,98904.02
2018-05-21T17:11:10.798Z,98905.83
2018-05-21T17:13:38.460Z,98900.30
2018-05-21T17:16:06.009Z,98907.27
2018-05-21T17:18:33.584Z,98897.73
2018-05-21T17:21:01.130Z,98891.13
2018-05-21T17:23:28.686Z,98884.45
2018-05-21T17:25:56.221Z,98888.59
2018-05-21T17:28:23.819Z,98891.32
2018-05-21T17:30:51.417Z,98889.77
2018-05-21T17:33:19.027Z,98889.20
2018-05-21T17:35:46.603Z,98891.15
2018-05-21T17:38:14.236Z,98882.09
2018-05-21T17:40:41.807Z,98886.29
2018-05-21T17:43:09.377Z,98879.05
2018-05-21T17:45:36.934Z,98887.08
2018-05-21T17:48:04.537Z,98878.19
2018-05-21T17:50:32.087Z,98881.13
2018-05-21T17:52:59.708Z,98876.33
2018-05-21T17:55:27.245Z,98882.70
2018-05-21T17:57:54.839Z,98895.71
2018-05-21T18:00:22.372Z,98895.56
2018-05-21T18:02:49.948Z,98896.41
2018-05-21T18:05:17.504Z,98899.07
2018-05-21T18:07:45.167Z,98896.30
2018-05-21T18:10:12.677Z,98902.31
2018-05-21T18:12:40.233Z,98909.92
2018-05-21T18:15:07.910Z,98911.28
2018-05-21T18:17:36.310Z,98909.23
2018-05-21T18:20:04.759Z,98906.56
2018-05-21T18:22:33.352Z,98911.27
2018-05-21T18:25:01.799Z,98917.44
2018-05-21T18:27:30.479Z,98908.44
2018-05-21T18:29:58.250Z,98910.40
2018-05-21T18:32:26.187Z,98899.70
2018-05-21T18:34:54.778Z,98896.06
2018-05-21T18:37:22.305Z,98896.81
2018-05-21T18:39:49.889Z,98899.04
2018-05-21T18:42:25.767Z,98897.38
2018-05-21T18:45:06.347Z,98896.36
2018-05-21T18:47:40.237Z,98896.02
2018-05-21T18:50:09.279Z,98894.83
2018-05-21T18:52:42.198Z,98890.92
2018-05-21T18:55:10.221Z,98903.20
2018-05-21T18:57:37.747Z,98898.66
2018-05-21T19:00:05.310Z,98908.12
2018-05-21T19:02:32.855Z,98907.78
2018-05-21T19:05:00.405Z,98905.77
2018-05-21T19:07:27.937Z,98908.81
2018-05-21T19:09:56.634Z,98909.77
2018-05-21T19:12:24.193Z,98908.50
2018-05-21T19:14:51.768Z,98911.27
2018-05-21T19:17:19.532Z,98910.95
2018-05-21T19:19:48.521Z,98911.27
2018-05-21T19:22:16.184Z,98911.68
2018-05-21T19:24:44.279Z,98919.53
2018-05-21T19:27:14.903Z,98914.55
2018-05-21T19:29:43.174Z,98911.04
2018-05-21T19:32:11.107Z,98915.19
2018-05-21T19:34:38.690Z,98913.01
2018-05-21T19:37:06.251Z,98914.53
2018-05-21T19:39:33.839Z,98908.22
2018-05-21T19:42:01.501Z,98911.59
2018-05-21T19:44:29.057Z,98912.91
2018-05-21T19:46:57.491Z,98917.22
2018-05-21T19:49:31.831Z,98912.43
2018-05-21T19:51:59.624Z,98918.83
2018-05-21T19:54:27.618Z,98910.03
2018-05-21T19:56:55.202Z,98911.16
2018-05-21T19:59:22.762Z,98915.25
2018-05-21T20:01:50.266Z,98922.54
2018-05-21T20:04:17.809Z,98917.31
2018-05-21T20:06:45.333Z,98912.95
2018-05-21T20:09:12.918Z,98912.67
2018-05-21T20:11:40.464Z,98919.85
2018-05-21T20:14:08.017Z,98926.16
2018-05-21T20:16:35.541Z,98928.70
2018-05-21T20:19:03.097Z,98937.27
2018-05-21T20:21:30.696Z,98935.32
2018-05-21T20:23:58.278Z,98932.48
2018-05-21T20:26:25.783Z,98939.92
2018-05-21T20:28:53.600Z,98931.48
2018-05-21T20:31:21.255Z,98932.31
2018-05-21T20:33:49.237Z,98934.97
2018-05-21T20:36:16.806Z,98930.14
2018-05-21T20:38:46.040Z,98938.09
2018-05-21T20:41:13.843Z,98927.91
2018-05-21T20:43:41.370Z,98935.17
2018-05-21T20:46:08.925Z,98945.56
2018-05-21T20:48:36.447Z,98948.06
2018-05-21T20:51:04.002Z,98949.37
2018-05-21T20:53:31.554Z,98947.98
2018-05-21T20:55:59.104Z,98955.46
2018-05-21T20:58:26.743Z,98952.95
2018-05-21T21:00:56.427Z,98958.07
2018-05-21T21:03:24.461Z,98954.24
2018-05-21T21:05:52.037Z,98954.07
2018-05-21T21:08:19.643Z,98958.59
2018-05-21T21:10:47.194Z,98960.38
2018-05-21T21:13:14.719Z,98955.21
2018-05-21T21:15:42.271Z,98956.72
2018-05-21T21:18:09.804Z,98951.30
2018-05-21T21:20:37.425Z,98953.53
2018-05-21T21:23:04.949Z,98952.98
2018-05-21T21:25:32.584Z,98950.89
2018-05-21T21:28:00.148Z,98951.58
2018-05-21T21:30:27.683Z,98950.89
2018-05-21T21:32:55.254Z,98948.52
2018-05-21T21:35:22.790Z,98943.91
2018-05-21T21:37:50.308Z,98947.69
2018-05-21T21:40:17.894Z,98944.95
2018-05-21T21:42:45.500Z,98938.88
2018-05-21T21:45:13.263Z,98940.81
2018-05-21T21:47:40.825Z,98940.45
2018-05-21T21:50:08.456Z,98937.84
2018-05-21T21:52:35.981Z,98944.41
2018-05-21T21:55:03.611Z,98928.27
2018-05-21T21:57:31.134Z,98935.85
2018-05-21T21:59:58.685Z,98923.08
2018-05-21T22:02:26.215Z,98927.47
2018-05-21T22:04:53.743Z,98927.55
2018-05-21T22:07:21.286Z,98921.06
2018-05-21T22:09:51.667Z,98921.60
2018-05-21T22:12:19.583Z,98921.53
2018-05-21T22:14:47.402Z,98926.84
2018-05-21T22:17:15.029Z,98926.40
2018-05-21T22:19:42.532Z,98923.50
2018-05-21T22:22:10.080Z,98924.11
2018-05-21T22:24:37.743Z,98923.94
2018-05-21T22:27:05.310Z,98917.37
2018-05-21T22:29:32.866Z,98921.75
2018-05-21T22:32:00.401Z,98926.64
2018-05-21T22:34:28.011Z,98927.46
2018-05-21T22:36:55.702Z,98924.81
2018-05-21T22:39:23.346Z,98925.59
2018-05-21T22:41:50.925Z,98928.56
2018-05-21T22:44:18.522Z,98922.03
2018-05-21T22:46:46.148Z,98924.77
2018-05-21T22:49:13.705Z,98923.34
2018-05-21T22:51:41.281Z,98918.05
2018-05-21T22:54:08.811Z,98927.73
2018-05-21T22:56:36.359Z,98925.17
2018-05-21T22:59:03.972Z,98922.72
2018-05-21T23:01:31.541Z,98919.16
2018-05-21T23:03:59.138Z,98918.89
2018-05-21T23:06:26.693Z,98916.38
2018-05-21T23:08:54.275Z,98906.97
2018-05-21T23:11:21.827Z,98904.95
2018-05-21T23:13:49.394Z,98907.27
2018-05-21T23:16:17.854Z,98913.03
2018-05-21T23:18:45.380Z,98905.59
2018-05-21T23:21:12.937Z,98904.41
2018-05-21T23:23:42.759Z,98899.74
2018-05-21T23:26:12.742Z,98900.44
2018-05-21T23:28:43.081Z,98899.47
2018-05-21T23:31:11.347Z,98896.05
2018-05-21T23:33:39.040Z,98897.23
2018-05-21T23:36:06.915Z,98891.66
2018-05-21T23:38:35.014Z,98892.21
2018-05-21T23:41:03.166Z,98887.72
2018-05-21T23:43:32.054Z,98893.63
2018-05-21T23:45:59.957Z,98900.06
2018-05-21T23:48:27.506Z,98896.86
2018-05-21T23:50:55.334Z,98899.55
2018-05-21T23:53:22.944Z,98899.22
2018-05-21T23:55:50.511Z,98894.80
2018-05-21T23:58:21.711Z,98894.25
